Querinda Park, New Mexico
Current Conditions -  °F | °C
As of 12:55 PM on Saturday 25 Oct 2014 (Local Time) from KAXX Reporting Station
Clear Clear  
Wind Chill: 72°   Ceiling: Unl
Heat Index: 72°   Visibility: 10mi
Dew Point:   Wind: 13mph
Humidity: 8%   Direction: 250°WSW
Pressure: 30.39"   Gusts: 18mph
Location:  36.7124°N, 105.403°W
Report Text: KAXX 251855Z AUTO 25011G16KT 10SM CLR 22/M15 A3039 RMK AO2 T02201147
Loading
Personal Weather Stations






























Interactive Weather Map New forecast layout! Learn more

10-Day Weather Forecast

Advertisements
Track Severe Weather on mobile